Terminal Aerodrome Forecast
Issued by NWS

Home | Current Version | Previous Version | Text Only | Print | Product List | Glossary On
Versions: 1 2 3 4 5 6 7 8 9 10 11 12 13 14 15 16
000
FTUS45 KRIW 202300
TAFCPR
TAF
KCPR 202329Z 2100/2124 36011KT P6SM SCT090
     FM210300 05009KT P6SM FEW090 SCT250
     FM210900 08009KT P6SM SCT250
     FM211500 14006KT P6SM SCT250
     FM211800 21009KT P6SM SCT070 BKN200=

USA.gov is the U.S. government's official web portal to all federal, state and local government web resources and services.